createdAt,value
2023-04-27T00:02:16.165Z,98072.91
2023-04-27T00:04:48.489Z,98105.59
2023-04-27T00:07:21.356Z,98126.50
2023-04-27T00:09:53.580Z,98139.13
2023-04-27T00:12:23.322Z,98142.38
2023-04-27T00:14:52.450Z,98130.72
2023-04-27T00:17:26.962Z,98126.28
2023-04-27T00:19:55.985Z,98129.50
2023-04-27T00:22:25.192Z,98097.50
2023-04-27T00:24:54.242Z,98054.03
2023-04-27T00:27:23.527Z,98044.28
2023-04-27T00:29:52.595Z,98046.81
2023-04-27T00:32:21.998Z,98043.41
2023-04-27T00:34:51.286Z,98028.53
2023-04-27T00:37:20.608Z,98009.88
2023-04-27T00:39:50.121Z,97997.75
2023-04-27T00:42:20.937Z,97975.63
2023-04-27T00:44:54.350Z,97969.25
2023-04-27T00:47:23.704Z,97981.75
2023-04-27T00:49:53.706Z,98002.03
2023-04-27T00:52:23.165Z,98029.56
2023-04-27T00:54:53.606Z,98045.72
2023-04-27T00:57:24.491Z,98050.22
2023-04-27T00:59:54.510Z,98060.47
2023-04-27T01:02:25.647Z,98078.38
2023-04-27T01:04:56.009Z,98093.72
2023-04-27T01:07:28.820Z,98102.47
2023-04-27T01:09:59.960Z,98123.97
2023-04-27T01:12:29.289Z,98130.47
2023-04-27T01:14:58.459Z,98138.78
2023-04-27T01:17:28.076Z,98119.38
2023-04-27T01:19:57.988Z,98105.41
2023-04-27T01:22:28.072Z,98105.03
2023-04-27T01:24:59.144Z,98098.09
2023-04-27T01:27:28.260Z,98107.09
2023-04-27T01:29:57.232Z,98119.75
2023-04-27T01:32:26.974Z,98117.41
2023-04-27T01:34:56.373Z,98112.50
2023-04-27T01:37:28.376Z,98109.03
2023-04-27T01:39:57.647Z,98111.34
2023-04-27T01:42:27.200Z,98105.66
2023-04-27T01:44:56.182Z,98113.25
2023-04-27T01:47:25.338Z,98112.50
2023-04-27T01:49:54.489Z,98123.06
2023-04-27T01:52:23.628Z,98122.06
2023-04-27T01:54:52.485Z,98124.16
2023-04-27T01:57:24.954Z,98128.78
2023-04-27T02:00:01.645Z,98129.31
2023-04-27T02:02:54.598Z,98135.00
2023-04-27T02:05:25.375Z,98147.22
2023-04-27T02:07:55.929Z,98150.41
2023-04-27T02:10:25.113Z,98171.22
2023-04-27T02:12:58.444Z,98180.13
2023-04-27T02:15:27.764Z,98192.41
2023-04-27T02:17:57.165Z,98191.25
2023-04-27T02:20:31.238Z,98197.38
2023-04-27T02:23:03.451Z,98199.22
2023-04-27T02:25:32.947Z,98186.56
2023-04-27T02:28:03.790Z,98190.56
2023-04-27T02:30:34.136Z,98204.66
2023-04-27T02:33:03.256Z,98207.88
2023-04-27T02:35:34.487Z,98219.59
2023-04-27T02:38:03.624Z,98219.88
2023-04-27T02:40:32.714Z,98230.81
2023-04-27T02:43:01.774Z,98230.94
2023-04-27T02:45:30.658Z,98230.56
2023-04-27T02:48:00.361Z,98227.47
2023-04-27T02:50:29.551Z,98225.16
2023-04-27T02:52:59.390Z,98219.88
2023-04-27T02:59:41.260Z,98231.88
2023-04-27T03:02:10.476Z,98237.19
2023-04-27T03:04:39.700Z,98238.03
2023-04-27T03:07:08.705Z,98245.81
2023-04-27T03:09:39.089Z,98239.69
2023-04-27T03:12:08.240Z,98241.91
2023-04-27T03:14:37.524Z,98231.16
2023-04-27T03:17:07.214Z,98237.38
2023-04-27T03:19:36.367Z,98243.25
2023-04-27T03:22:05.663Z,98241.25
2023-04-27T03:24:35.384Z,98259.69
2023-04-27T03:27:04.454Z,98274.00
2023-04-27T03:29:33.595Z,98268.97
2023-04-27T03:32:03.040Z,98282.03
2023-04-27T03:34:32.915Z,98267.47
2023-04-27T03:37:02.644Z,98280.59
2023-04-27T03:39:31.773Z,98269.72
2023-04-27T03:42:01.095Z,98265.03
2023-04-27T03:44:32.082Z,98264.63
2023-04-27T03:47:02.580Z,98271.16
2023-04-27T03:49:31.877Z,98269.03
2023-04-27T03:52:01.050Z,98262.63
2023-04-27T03:54:30.340Z,98268.47
2023-04-27T03:56:59.756Z,98270.13
2023-04-27T03:59:31.266Z,98270.59
2023-04-27T04:02:01.521Z,98266.38
2023-04-27T04:04:30.876Z,98265.47
2023-04-27T04:06:59.915Z,98256.59
2023-04-27T04:09:29.730Z,98276.25
2023-04-27T04:11:58.761Z,98264.16
2023-04-27T04:14:29.493Z,98264.31
2023-04-27T04:16:59.574Z,98260.34
2023-04-27T04:19:28.718Z,98269.03
2023-04-27T04:21:59.053Z,98270.06
2023-04-27T04:24:29.389Z,98277.25
2023-04-27T04:26:59.688Z,98263.84
2023-04-27T04:29:28.679Z,98271.91
2023-04-27T04:31:58.560Z,98282.78
2023-04-27T04:34:28.194Z,98272.25
2023-04-27T04:37:01.302Z,98284.78
2023-04-27T04:39:34.262Z,98281.16
2023-04-27T04:42:05.214Z,98294.72
2023-04-27T04:44:35.006Z,98291.47
2023-04-27T04:47:04.614Z,98300.59
2023-04-27T04:49:33.798Z,98304.28
2023-04-27T04:52:03.056Z,98304.88
2023-04-27T04:54:32.349Z,98293.75
2023-04-27T04:57:04.519Z,98306.00
2023-04-27T04:59:36.896Z,98302.69
2023-04-27T05:02:06.334Z,98304.63
2023-04-27T05:04:35.490Z,98323.28
2023-04-27T05:07:05.936Z,98313.06
2023-04-27T05:09:35.326Z,98324.06
2023-04-27T05:12:04.762Z,98311.53
2023-04-27T05:14:34.231Z,98322.69
2023-04-27T05:17:03.422Z,98329.78
2023-04-27T05:19:32.858Z,98325.25
2023-04-27T05:22:01.936Z,98326.63
2023-04-27T05:24:30.985Z,98325.97
2023-04-27T05:27:01.504Z,98328.41
2023-04-27T05:29:32.063Z,98322.84
2023-04-27T05:32:01.193Z,98323.38
2023-04-27T05:34:30.278Z,98322.00
2023-04-27T05:36:59.464Z,98320.66
2023-04-27T05:39:28.856Z,98330.88
2023-04-27T05:41:58.464Z,98324.19
2023-04-27T05:44:30.474Z,98333.41
2023-04-27T05:46:59.468Z,98328.63
2023-04-27T05:49:28.662Z,98354.41
2023-04-27T05:51:57.662Z,98332.31
2023-04-27T05:54:27.065Z,98329.84
2023-04-27T05:56:56.038Z,98323.25
2023-04-27T05:59:25.034Z,98327.28
2023-04-27T06:01:54.401Z,98328.16
2023-04-27T06:04:23.410Z,98331.59
2023-04-27T06:06:53.022Z,98312.78
2023-04-27T06:09:22.069Z,98315.72
2023-04-27T06:11:51.372Z,98317.09
2023-04-27T06:14:20.272Z,98307.28
2023-04-27T06:16:49.390Z,98306.47
2023-04-27T06:19:18.779Z,98314.66
2023-04-27T06:21:47.809Z,98303.47
2023-04-27T06:24:16.856Z,98309.34
2023-04-27T06:26:45.909Z,98296.31
2023-04-27T06:29:14.989Z,98296.44
2023-04-27T06:31:44.414Z,98311.22
2023-04-27T06:34:14.265Z,98309.63
2023-04-27T06:36:44.184Z,98312.34
2023-04-27T06:39:13.391Z,98299.81
2023-04-27T06:41:42.543Z,98297.59
2023-04-27T06:44:20.686Z,98299.41
2023-04-27T06:46:49.795Z,98287.88
2023-04-27T06:49:18.804Z,98304.31
2023-04-27T06:51:47.939Z,98300.41
2023-04-27T06:54:17.687Z,98298.97
2023-04-27T06:56:47.334Z,98294.97
2023-04-27T06:59:16.695Z,98292.66
2023-04-27T07:01:45.480Z,98295.44
2023-04-27T07:04:15.113Z,98297.94
2023-04-27T07:11:33.161Z,98286.50
2023-04-27T07:14:02.308Z,98285.13
2023-04-27T07:16:32.077Z,98276.88
2023-04-27T07:19:02.909Z,98277.25
2023-04-27T07:21:32.787Z,98268.59
2023-04-27T07:24:02.278Z,98268.63
2023-04-27T07:26:32.970Z,98266.06
2023-04-27T07:29:06.126Z,98262.41
2023-04-27T07:31:43.811Z,98268.38
2023-04-27T07:34:13.468Z,98267.66
2023-04-27T07:36:42.915Z,98261.03
2023-04-27T07:39:19.704Z,98261.19
2023-04-27T07:45:48.140Z,98246.38
2023-04-27T07:48:19.175Z,98246.25
2023-04-27T07:56:11.409Z,98232.13
2023-04-27T07:58:41.087Z,98224.38
2023-04-27T08:01:11.280Z,98215.88
2023-04-27T08:03:41.352Z,98227.34
2023-04-27T08:06:11.336Z,98218.13
2023-04-27T08:08:40.939Z,98210.03
2023-04-27T08:11:13.996Z,98209.81
2023-04-27T08:13:43.609Z,98206.09
2023-04-27T08:16:12.809Z,98205.94
2023-04-27T08:18:42.648Z,98202.66
2023-04-27T08:21:12.434Z,98202.59
2023-04-27T08:23:41.911Z,98206.22
2023-04-27T08:26:16.911Z,98200.38
2023-04-27T08:28:46.142Z,98191.50
2023-04-27T08:31:15.528Z,98183.88
2023-04-27T08:33:44.789Z,98174.03
2023-04-27T08:36:13.917Z,98170.44
2023-04-27T08:38:43.096Z,98175.22
2023-04-27T08:41:21.458Z,98172.25
2023-04-27T08:43:53.240Z,98170.75
2023-04-27T08:46:24.612Z,98164.56
2023-04-27T08:48:58.225Z,98164.72
2023-04-27T08:51:28.608Z,98164.59
2023-04-27T08:53:59.479Z,98178.94
2023-04-27T08:56:30.902Z,98168.53
2023-04-27T08:59:02.973Z,98160.63
2023-04-27T09:01:33.260Z,98157.28
2023-04-27T09:04:04.156Z,98149.34
2023-04-27T09:06:35.120Z,98148.16
2023-04-27T09:09:05.837Z,98141.59
2023-04-27T09:11:38.152Z,98135.72
2023-04-27T09:14:26.249Z,98142.00
2023-04-27T09:17:00.983Z,98133.78
2023-04-27T09:19:31.741Z,98139.31
2023-04-27T09:22:12.698Z,98132.00
2023-04-27T09:24:53.270Z,98123.19
2023-04-27T09:27:23.370Z,98125.31
2023-04-27T09:29:53.267Z,98129.84
2023-04-27T09:32:23.654Z,98116.97
2023-04-27T09:34:53.030Z,98101.44
2023-04-27T09:37:25.101Z,98108.47
2023-04-27T09:39:54.294Z,98093.47
2023-04-27T09:42:23.329Z,98104.06
2023-04-27T09:44:55.764Z,98091.59
2023-04-27T09:47:25.862Z,98085.22
2023-04-27T09:49:54.459Z,98091.84
2023-04-27T09:52:23.621Z,98089.06
2023-04-27T09:54:53.797Z,98084.41
2023-04-27T09:57:38.403Z,98074.56
2023-04-27T10:00:25.089Z,98073.66
2023-04-27T10:03:06.597Z,98067.28
2023-04-27T10:05:52.306Z,98058.13
2023-04-27T10:08:23.786Z,98062.25
2023-04-27T10:10:55.169Z,98055.06
2023-04-27T10:13:27.256Z,98060.19
2023-04-27T10:15:56.355Z,98047.78
2023-04-27T10:18:31.701Z,98039.63
2023-04-27T10:21:13.341Z,98037.06
2023-04-27T10:23:49.663Z,98042.38
2023-04-27T10:26:26.102Z,98032.63
2023-04-27T10:29:11.084Z,98037.81
2023-04-27T10:31:46.225Z,98029.25
2023-04-27T10:34:21.314Z,98026.53
2023-04-27T10:36:50.653Z,98025.53
2023-04-27T10:39:36.194Z,98026.06
2023-04-27T10:42:13.184Z,98020.47
2023-04-27T10:44:42.274Z,98015.63
2023-04-27T10:47:21.313Z,98013.09
2023-04-27T10:49:53.769Z,98016.41
2023-04-27T10:52:27.869Z,98012.03
2023-04-27T10:54:56.595Z,98010.91
2023-04-27T10:57:25.256Z,98009.16
2023-04-27T10:59:56.603Z,98004.56
2023-04-27T11:02:30.499Z,97997.91
2023-04-27T11:05:02.566Z,97998.03
2023-04-27T11:07:31.351Z,97993.09
2023-04-27T11:10:00.315Z,97989.19
2023-04-27T11:12:29.280Z,97986.63
2023-04-27T11:15:02.895Z,97984.78
2023-04-27T11:17:34.199Z,97972.91
2023-04-27T11:20:03.092Z,97981.72
2023-04-27T11:22:31.633Z,97968.22
2023-04-27T11:25:01.340Z,97960.25
2023-04-27T11:27:41.814Z,97956.63
2023-04-27T11:30:24.842Z,97950.66
2023-04-27T11:32:54.671Z,97949.28
2023-04-27T11:35:37.551Z,97956.72
2023-04-27T11:59:31.145Z,97931.44
2023-04-27T12:11:30.337Z,97925.88
2023-04-27T12:22:19.475Z,97932.72
2023-04-27T12:24:55.739Z,97931.72
2023-04-27T12:31:46.394Z,97932.56
2023-04-27T12:34:50.652Z,97927.91
2023-04-27T12:37:47.410Z,97935.78
2023-04-27T13:04:22.700Z,97928.53
2023-04-27T13:06:52.013Z,97933.69
2023-04-27T13:24:40.650Z,97947.84
2023-04-27T13:27:32.135Z,97952.16
2023-04-27T13:30:21.316Z,97961.47
2023-04-27T13:35:41.875Z,97967.75
2023-04-27T13:38:19.611Z,97970.13
2023-04-27T13:45:09.762Z,97972.75
2023-04-27T13:55:15.979Z,97984.69
2023-04-27T13:58:02.170Z,97999.16
2023-04-27T14:01:14.366Z,97994.84
2023-04-27T14:03:55.930Z,97991.47
2023-04-27T14:10:20.548Z,98007.28
2023-04-27T14:12:50.750Z,98010.50
2023-04-27T14:16:29.287Z,97993.63
2023-04-27T14:18:58.092Z,98022.56
2023-04-27T14:25:57.709Z,98034.53
2023-04-27T14:28:28.960Z,98042.19
2023-04-27T14:31:13.616Z,98050.50
2023-04-27T14:44:42.129Z,98078.88
2023-04-27T14:47:25.449Z,98091.97
2023-04-27T14:50:09.736Z,98097.00
2023-04-27T14:56:41.156Z,98111.34
2023-04-27T14:59:13.646Z,98113.25
2023-04-27T15:01:47.183Z,98124.81
2023-04-27T15:04:43.447Z,98120.03
2023-04-27T15:10:42.429Z,98133.78
2023-04-27T15:13:15.791Z,98139.44
2023-04-27T15:16:23.158Z,98150.44
2023-04-27T15:18:57.178Z,98147.88
2023-04-27T15:28:29.154Z,98145.31
2023-04-27T15:38:21.090Z,98158.28
2023-04-27T15:40:50.421Z,98156.34
2023-04-27T15:43:43.336Z,98165.72
2023-04-27T15:46:13.224Z,98172.44
2023-04-27T15:49:02.538Z,98175.91
2023-04-27T15:55:16.715Z,98181.06
2023-04-27T15:58:10.558Z,98179.75
2023-04-27T16:04:51.706Z,98187.91
2023-04-27T16:11:33.797Z,98188.97
2023-04-27T16:14:53.033Z,98163.56
2023-04-27T16:21:01.622Z,98188.97
2023-04-27T16:23:30.736Z,98190.88
2023-04-27T16:29:14.088Z,98198.38
2023-04-27T16:31:52.399Z,98197.53
2023-04-27T16:41:27.919Z,98194.13
2023-04-27T16:43:57.338Z,98199.50
2023-04-27T16:46:28.880Z,98203.97
2023-04-27T16:48:58.878Z,98186.78
2023-04-27T16:55:22.771Z,98194.38
2023-04-27T17:01:30.954Z,98193.38
2023-04-27T17:04:35.149Z,98194.94
2023-04-27T17:21:04.250Z,98197.31
2023-04-27T17:24:20.971Z,98199.25
2023-04-27T17:27:16.754Z,98197.31
2023-04-27T17:33:51.719Z,98184.78
2023-04-27T17:36:28.944Z,98189.97
2023-04-27T17:39:16.115Z,98189.78
2023-04-27T17:41:48.064Z,98195.97
2023-04-27T17:44:18.419Z,98192.47
2023-04-27T17:47:12.651Z,98196.44
2023-04-27T17:53:13.399Z,98187.94
2023-04-27T17:59:44.219Z,98186.69
2023-04-27T18:06:28.821Z,98180.41
2023-04-27T18:08:58.659Z,98179.31
2023-04-27T18:14:52.174Z,98179.84
2023-04-27T18:20:29.105Z,98169.09
2023-04-27T18:23:16.771Z,98162.16
2023-04-27T18:26:02.927Z,98171.84
2023-04-27T18:29:02.983Z,98159.53
2023-04-27T18:52:40.134Z,98135.22
2023-04-27T18:55:19.264Z,98128.50
2023-04-27T19:01:58.315Z,98132.09
2023-04-27T19:08:26.620Z,98110.16
2023-04-27T19:14:54.301Z,98146.88
2023-04-27T19:17:34.006Z,98152.38
2023-04-27T19:23:57.171Z,98158.06
2023-04-27T19:26:48.666Z,98168.78
2023-04-27T19:39:41.645Z,98174.16
2023-04-27T19:42:22.181Z,98181.63
2023-04-27T19:52:03.117Z,98190.22
2023-04-27T20:13:25.911Z,98177.19
2023-04-27T20:16:02.914Z,98165.75
2023-04-27T20:25:28.089Z,98169.72
2023-04-27T20:32:17.893Z,98171.91
2023-04-27T20:35:29.043Z,98167.63
2023-04-27T20:38:29.455Z,98152.06
2023-04-27T20:41:02.127Z,98142.72
2023-04-27T20:43:32.668Z,98141.72
2023-04-27T21:20:33.596Z,98164.84
2023-04-27T21:37:23.260Z,98155.50
2023-04-27T21:39:54.999Z,98147.81
2023-04-27T21:59:27.464Z,98164.66
2023-04-27T22:02:27.177Z,98164.28
2023-04-27T22:05:12.952Z,98169.53
2023-04-27T22:14:44.436Z,98170.84
2023-04-27T22:18:31.443Z,98158.31
2023-04-27T22:21:01.011Z,98153.56
2023-04-27T22:27:05.293Z,98146.88
2023-04-27T22:29:52.474Z,98145.56
2023-04-27T22:55:54.235Z,98166.84
2023-04-27T23:04:59.810Z,98228.75
2023-04-27T23:17:52.376Z,98252.81
2023-04-27T23:52:48.939Z,98273.63
2023-04-27T23:56:02.979Z,98267.13
